Time;durP1;ratioP1;P1;durP2;ratioP2;P2;SDS_P1;SDS_P2;PMS_P1;PMS_P2;Temp;Humidity;BMP_temperature;BMP_pressure;BME280_temperature;BME280_humidity;BME280_pressure;Samples;Min_cycle;Max_cycle;Signal;HPM_P1;HPM_P2
2022/08/30 00:02:21;;;;;;;10.68;9.68;;;;;;;19.91;72.96;95069.66;5066014;28;20197;-74
2022/08/30 00:04:48;;;;;;;10.50;9.65;;;;;;;19.90;73.21;95067.28;5063091;28;20237;-74
2022/08/30 00:07:15;;;;;;;10.27;9.30;;;;;;;19.90;73.28;95076.47;5063880;28;20201;-74
2022/08/30 00:09:42;;;;;;;9.80;9.10;;;;;;;19.90;73.32;95075.66;5063982;28;20197;-74
2022/08/30 00:12:10;;;;;;;10.25;9.27;;;;;;;19.89;73.48;95065.66;5062461;28;20281;-74
2022/08/30 00:14:37;;;;;;;10.45;9.45;;;;;;;19.87;73.55;95063.28;5062251;28;20206;-74
2022/08/30 00:17:05;;;;;;;9.88;9.00;;;;;;;19.86;73.47;95066.47;5060621;28;20270;-74
2022/08/30 00:19:32;;;;;;;10.82;9.75;;;;;;;19.84;73.52;95077.31;5091457;28;20204;-74
2022/08/30 00:21:59;;;;;;;9.38;8.57;;;;;;;19.79;72.99;95078.56;5091336;28;20202;-74
2022/08/30 00:24:26;;;;;;;9.52;8.68;;;;;;;19.74;73.40;95078.97;5057678;28;20614;-74
2022/08/30 00:26:53;;;;;;;10.05;9.13;;;;;;;19.73;73.57;95079.41;5061384;28;20201;-74
2022/08/30 00:29:23;;;;;;;10.10;9.10;;;;;;;19.71;73.33;95074.19;5058756;28;20638;-74
2022/08/30 00:31:50;;;;;;;9.45;8.65;;;;;;;19.68;73.70;95073.03;5054946;28;20233;-74
2022/08/30 00:34:17;;;;;;;10.13;8.93;;;;;;;19.67;73.83;95079.03;5054244;28;20193;-74
2022/08/30 00:36:44;;;;;;;11.73;8.65;;;;;;;19.67;73.61;95077.03;5055036;28;20190;-74
2022/08/30 00:39:11;;;;;;;9.38;8.68;;;;;;;19.67;73.94;95077.03;5057194;28;20193;-74
2022/08/30 00:41:38;;;;;;;9.88;8.88;;;;;;;19.66;74.25;95081.03;5061513;28;20598;-74
2022/08/30 00:44:06;;;;;;;9.93;8.93;;;;;;;19.66;74.29;95081.03;5062546;28;20626;-74
2022/08/30 00:46:34;;;;;;;10.07;9.07;;;;;;;19.67;74.15;95082.63;5060971;28;20207;-74
2022/08/30 00:49:04;;;;;;;9.75;8.80;;;;;;;19.66;73.75;95071.84;5060924;28;20236;-74
2022/08/30 00:51:32;;;;;;;9.45;8.55;;;;;;;19.64;73.94;95075.06;5064037;28;20213;-75
2022/08/30 00:54:01;;;;;;;10.25;9.35;;;;;;;19.60;73.95;95077.06;5098560;28;20265;-74
2022/08/30 00:56:29;;;;;;;9.70;8.73;;;;;;;19.57;74.00;95077.06;5060873;28;20234;-74
2022/08/30 00:59:00;;;;;;;10.60;9.50;;;;;;;19.56;74.12;95081.88;5058643;28;20182;-74
2022/08/30 01:01:27;;;;;;;9.60;8.70;;;;;;;19.52;73.31;95080.31;5057523;28;20209;-74
2022/08/30 01:03:56;;;;;;;9.88;9.05;;;;;;;19.48;73.30;95083.94;5059855;28;20185;-73
2022/08/30 01:06:23;;;;;;;9.45;8.75;;;;;;;19.48;73.48;95085.94;5091980;28;20244;-73
2022/08/30 01:08:50;;;;;;;9.77;8.88;;;;;;;19.46;73.76;95075.19;5058384;28;20217;-73
2022/08/30 01:11:19;;;;;;;9.93;8.98;;;;;;;19.45;73.77;95075.56;5057288;28;20198;-73
2022/08/30 01:13:46;;;;;;;9.88;8.98;;;;;;;19.44;73.75;95074.78;5057500;28;20201;-73
2022/08/30 01:16:13;;;;;;;9.82;8.93;;;;;;;19.44;73.64;95074.00;5057851;28;20235;-73
2022/08/30 01:18:41;;;;;;;9.68;8.77;;;;;;;19.44;73.62;95074.00;5058474;28;20208;-73
2022/08/30 01:21:15;;;;;;;9.88;8.98;;;;;;;19.44;74.15;95077.56;5057559;28;20194;-73
2022/08/30 01:23:47;;;;;;;9.82;9.02;;;;;;;19.46;74.03;95074.34;5057479;28;20201;-73
2022/08/30 01:26:14;;;;;;;9.35;8.65;;;;;;;19.48;74.20;95074.75;5057216;28;20192;-73
2022/08/30 01:28:41;;;;;;;8.88;8.02;;;;;;;19.50;74.12;95077.94;5058038;28;20657;-73
2022/08/30 01:31:08;;;;;;;9.63;8.82;;;;;;;19.48;74.17;95077.56;5057464;28;20194;-73
2022/08/30 01:33:37;;;;;;;10.73;9.52;;;;;;;19.46;73.96;95075.19;5057936;28;20193;-73
2022/08/30 01:36:06;;;;;;;10.23;9.32;;;;;;;19.48;74.28;95080.34;5040202;28;20202;-73
2022/08/30 01:38:35;;;;;;;9.50;8.70;;;;;;;19.48;74.28;95075.53;5057890;28;20201;-73
2022/08/30 01:41:11;;;;;;;9.85;9.05;;;;;;;19.47;74.00;95079.56;5090533;28;20209;-73
2022/08/30 01:43:38;;;;;;;10.77;9.68;;;;;;;19.47;73.95;95071.16;5057542;28;20185;-73
2022/08/30 01:46:05;;;;;;;9.77;8.77;;;;;;;19.45;74.05;95067.97;5056478;28;20216;-73
2022/08/30 01:48:33;;;;;;;9.52;8.73;;;;;;;19.44;73.89;95062.81;5056892;28;20229;-74
2022/08/30 01:50:59;;;;;;;10.57;9.48;;;;;;;19.41;73.82;95067.22;5056147;28;20197;-73
2022/08/30 01:53:26;;;;;;;9.65;8.60;;;;;;;19.38;74.14;95068.03;5073895;28;20208;-73
2022/08/30 01:55:54;;;;;;;9.85;8.98;;;;;;;19.38;74.00;95062.44;5057970;28;20196;-74
2022/08/30 01:58:22;;;;;;;10.52;9.45;;;;;;;19.35;74.07;95057.66;5059803;28;20232;-74
2022/08/30 02:00:49;;;;;;;10.07;9.18;;;;;;;19.34;74.46;95058.88;5061043;28;20194;-74
2022/08/30 02:03:17;;;;;;;9.73;8.90;;;;;;;19.33;74.40;95045.31;5059600;28;20201;-74
2022/08/30 02:05:44;;;;;;;10.27;9.25;;;;;;;19.34;74.75;95052.47;5056657;28;20237;-74
2022/08/30 02:08:11;;;;;;;9.90;9.00;;;;;;;19.36;74.76;95050.09;5057274;28;20271;-74
2022/08/30 02:10:38;;;;;;;10.57;9.65;;;;;;;19.33;74.40;95060.06;5056729;28;20202;-74
2022/08/30 02:13:04;;;;;;;10.65;9.63;;;;;;;19.32;74.38;95054.88;5056812;28;20204;-74
2022/08/30 02:15:34;;;;;;;10.23;9.27;;;;;;;19.28;74.23;95052.13;5056098;28;20206;-74
2022/08/30 02:18:01;;;;;;;10.48;9.40;;;;;;;19.27;74.45;95053.31;5056799;28;20636;-73
2022/08/30 02:20:28;;;;;;;10.25;9.45;;;;;;;19.27;75.10;95056.13;5056881;28;20209;-72
2022/08/30 02:22:54;;;;;;;9.68;8.77;;;;;;;19.25;74.76;95047.34;5056155;28;20201;-73
2022/08/30 02:25:22;;;;;;;9.77;8.80;;;;;;;19.23;74.62;95053.34;5057109;28;20198;-73
2022/08/30 02:27:49;;;;;;;10.02;8.98;;;;;;;19.20;74.27;95044.97;5056723;28;20268;-72
2022/08/30 02:30:16;;;;;;;10.82;9.05;;;;;;;19.17;74.50;95043.00;5056018;28;20200;-73
2022/08/30 02:32:44;;;;;;;10.57;9.23;;;;;;;19.17;74.56;95054.19;5056678;28;20182;-73
2022/08/30 02:35:12;;;;;;;10.82;9.82;;;;;;;19.17;74.88;95054.19;5055955;28;20233;-73
2022/08/30 02:37:40;;;;;;;10.90;9.90;;;;;;;19.19;74.82;95051.78;5056634;28;20503;-73
2022/08/30 02:40:08;;;;;;;10.68;9.77;;;;;;;19.20;74.08;95056.94;5056690;28;20198;-73
2022/08/30 02:42:36;;;;;;;10.93;9.75;;;;;;;19.22;74.65;95059.34;5056017;28;20201;-73
2022/08/30 02:45:03;;;;;;;10.95;9.85;;;;;;;19.20;74.50;95059.75;5056579;28;20182;-73
2022/08/30 02:47:30;;;;;;;10.80;9.80;;;;;;;19.19;74.26;95051.78;5055764;28;20190;-73
2022/08/30 02:49:58;;;;;;;10.88;10.02;;;;;;;19.17;74.64;95049.41;5056564;28;20206;-73
2022/08/30 02:52:25;;;;;;;10.02;9.02;;;;;;;19.19;74.70;95048.97;5055621;28;20204;-72
2022/08/30 02:54:54;;;;;;;10.52;9.60;;;;;;;19.22;74.16;95048.97;5055793;28;20198;-73
2022/08/30 02:57:21;;;;;;;9.52;8.73;;;;;;;19.23;73.92;95052.56;5055904;28;20205;-73
2022/08/30 02:59:51;;;;;;;10.35;9.45;;;;;;;19.22;73.82;95048.97;5056837;28;20625;-74
2022/08/30 03:02:18;;;;;;;10.73;9.75;;;;;;;19.22;74.00;95042.56;5055981;28;20205;-74
2022/08/30 03:04:45;;;;;;;11.80;9.45;;;;;;;19.19;73.63;95046.19;5055937;28;20198;-75
2022/08/30 03:07:13;;;;;;;9.73;8.80;;;;;;;19.19;73.55;95043.41;5039329;28;20210;-74
2022/08/30 03:09:40;;;;;;;9.43;8.63;;;;;;;19.19;72.72;95049.78;5055441;28;20213;-74
2022/08/30 03:12:08;;;;;;;9.77;8.77;;;;;;;19.19;72.79;95048.97;5055794;28;20202;-73
2022/08/30 03:14:37;;;;;;;9.20;8.40;;;;;;;19.22;73.16;95050.97;5055567;28;20210;-74
2022/08/30 03:17:05;;;;;;;9.27;8.48;;;;;;;19.21;72.63;95058.56;5055329;28;20213;-74
2022/08/30 03:19:31;;;;;;;9.95;9.15;;;;;;;19.21;72.52;95057.78;5056570;28;20244;-75
2022/08/30 03:21:59;;;;;;;9.63;8.75;;;;;;;19.19;73.01;95054.56;5056339;28;20186;-74
2022/08/30 03:24:27;;;;;;;9.70;8.82;;;;;;;19.21;73.19;95054.97;5054836;28;20198;-75
2022/08/30 03:26:54;;;;;;;9.80;8.80;;;;;;;19.22;72.82;95057.34;5055284;28;20205;-74
2022/08/30 03:29:21;;;;;;;10.68;9.77;;;;;;;19.22;72.90;95059.34;5057595;28;20220;-75
2022/08/30 03:31:48;;;;;;;10.00;9.07;;;;;;;19.20;72.59;95068.13;5056679;28;20218;-73
2022/08/30 03:34:15;;;;;;;9.57;8.77;;;;;;;19.21;73.13;95066.16;5055161;28;20602;-74
2022/08/30 03:36:43;;;;;;;10.55;9.60;;;;;;;19.18;72.60;95059.38;5055345;28;20371;-74
2022/08/30 03:39:10;;;;;;;10.98;9.93;;;;;;;19.18;72.88;95062.16;5056010;28;20196;-74
2022/08/30 03:41:39;;;;;;;11.43;10.20;;;;;;;19.18;72.89;95062.16;5056303;28;20194;-74
2022/08/30 03:44:05;;;;;;;11.70;9.98;;;;;;;19.17;73.55;95065.34;5056143;28;20208;-74
2022/08/30 03:46:32;;;;;;;10.48;9.23;;;;;;;19.16;73.63;95066.56;5056592;28;20210;-73
2022/08/30 03:48:59;;;;;;;10.68;9.75;;;;;;;19.18;74.00;95064.19;5058200;28;20217;-73
2022/08/30 03:51:26;;;;;;;10.80;9.90;;;;;;;19.19;73.62;95068.56;5055857;28;20201;-73
2022/08/30 03:53:53;;;;;;;11.35;10.25;;;;;;;19.17;74.00;95066.19;5055194;28;20197;-73
2022/08/30 03:56:20;;;;;;;11.00;9.88;;;;;;;19.19;73.78;95063.75;5056159;28;20196;-73
2022/08/30 03:58:48;;;;;;;11.75;10.60;;;;;;;19.18;73.61;95061.38;5056466;28;20205;-73
2022/08/30 04:01:15;;;;;;;10.82;9.90;;;;;;;19.18;74.24;95064.97;5055763;28;20675;-74
2022/08/30 04:03:42;;;;;;;11.18;10.20;;;;;;;19.20;74.17;95062.53;5055734;28;20201;-74
2022/08/30 04:06:09;;;;;;;12.02;10.32;;;;;;;19.20;74.15;95070.13;5056682;28;20233;-74
2022/08/30 04:08:37;;;;;;;12.52;11.23;;;;;;;19.17;74.18;95060.59;5058532;28;20226;-74
2022/08/30 04:11:04;;;;;;;16.23;13.20;;;;;;;19.17;74.62;95065.34;5057902;28;20190;-75
2022/08/30 04:13:31;;;;;;;13.23;11.93;;;;;;;19.19;74.82;95060.16;5055670;28;20182;-74
2022/08/30 04:16:00;;;;;;;13.38;12.07;;;;;;;19.21;74.75;95066.16;5055011;28;20204;-74
2022/08/30 04:18:27;;;;;;;14.40;12.77;;;;;;;19.21;74.58;95063.38;5055172;28;20197;-74
2022/08/30 04:20:54;;;;;;;14.27;12.57;;;;;;;19.23;75.11;95074.91;5055697;28;20210;-74
2022/08/30 04:23:21;;;;;;;13.07;11.80;;;;;;;19.26;74.35;95076.09;5056293;28;20193;-74
2022/08/30 04:25:48;;;;;;;13.07;11.80;;;;;;;19.25;74.83;95075.31;5056164;28;20220;-74
2022/08/30 04:28:14;;;;;;;12.55;11.35;;;;;;;19.26;74.82;95068.50;5056282;28;20526;-74
2022/08/30 04:30:43;;;;;;;13.38;11.80;;;;;;;19.25;74.57;95078.13;5060251;28;20284;-74
2022/08/30 04:33:11;;;;;;;13.90;12.32;;;;;;;19.24;74.50;95082.09;5057345;28;20220;-74
2022/08/30 04:35:40;;;;;;;12.18;10.98;;;;;;;19.23;74.84;95075.72;5058909;28;20201;-73
2022/08/30 04:38:07;;;;;;;12.05;10.95;;;;;;;19.23;74.96;95078.50;5059605;28;20185;-74
2022/08/30 04:40:34;;;;;;;12.05;10.93;;;;;;;19.24;74.83;95082.09;5061489;28;20192;-74
2022/08/30 04:43:01;;;;;;;11.75;10.73;;;;;;;19.26;74.35;95090.09;5059890;28;20197;-74
2022/08/30 04:45:28;;;;;;;12.23;11.02;;;;;;;19.27;74.65;95088.88;5061553;28;20182;-73
2022/08/30 04:47:55;;;;;;;12.38;11.13;;;;;;;19.26;74.54;95088.09;5058158;28;20193;-74
2022/08/30 04:50:24;;;;;;;12.55;11.25;;;;;;;19.28;74.59;95084.88;5055609;28;20306;-74
2022/08/30 04:52:51;;;;;;;12.68;11.10;;;;;;;19.30;74.85;95093.66;5059782;28;20205;-73
2022/08/30 04:55:17;;;;;;;12.30;11.00;;;;;;;19.30;74.67;95088.06;5061416;28;20205;-73
2022/08/30 04:57:44;;;;;;;13.00;12.02;;;;;;;19.31;74.87;95095.25;5058359;28;20190;-73
2022/08/30 05:00:13;;;;;;;11.73;10.63;;;;;;;19.29;74.64;95095.66;5060370;28;20183;-73
2022/08/30 05:02:40;;;;;;;11.50;10.50;;;;;;;19.30;74.87;95093.66;5057109;28;20194;-73
2022/08/30 05:07:54;;;;;;;13.30;11.45;;;;;;;19.33;74.91;95106.81;5053846;28;20190;-73
2022/08/30 05:10:21;;;;;;;12.85;11.35;;;;;;;19.35;75.17;95101.59;5053449;28;20567;-74
2022/08/30 05:12:49;;;;;;;13.40;12.10;;;;;;;19.33;75.12;95102.03;5054123;28;20190;-73
2022/08/30 05:15:16;;;;;;;12.57;11.32;;;;;;;19.35;75.29;95107.97;5053757;28;20197;-74
2022/08/30 05:17:43;;;;;;;13.32;12.10;;;;;;;19.36;75.28;95103.22;5054466;28;20193;-73
2022/08/30 05:20:12;;;;;;;13.27;12.07;;;;;;;19.35;75.46;95110.00;5053499;28;20200;-74
2022/08/30 05:22:40;;;;;;;13.38;11.25;;;;;;;19.35;75.53;95116.38;5054398;28;20343;-74
2022/08/30 05:25:09;;;;;;;16.35;12.18;;;;;;;19.34;75.51;95122.38;5054887;28;20189;-74
2022/08/30 05:27:36;;;;;;;12.52;11.32;;;;;;;19.32;75.57;95124.78;5057990;28;20190;-74
2022/08/30 05:30:05;;;;;;;12.70;11.40;;;;;;;19.32;75.35;95120.00;5058145;28;20202;-74
2022/08/30 05:32:33;;;;;;;11.88;10.77;;;;;;;19.31;75.43;95118.41;5057734;28;20190;-74
2022/08/30 05:35:00;;;;;;;13.18;11.98;;;;;;;19.31;75.10;95121.19;5058541;28;20216;-74
2022/08/30 05:37:26;;;;;;;12.68;11.50;;;;;;;19.32;75.26;95127.59;5057957;28;20194;-74
2022/08/30 05:39:53;;;;;;;15.00;12.23;;;;;;;19.33;75.29;95126.41;5058105;28;20194;-74
2022/08/30 05:42:22;;;;;;;12.77;11.63;;;;;;;19.32;75.22;95122.00;5059495;28;20190;-74
2022/08/30 05:44:50;;;;;;;12.38;11.27;;;;;;;19.32;75.51;95120.00;5057115;28;20206;-74
2022/08/30 05:47:17;;;;;;;12.65;11.52;;;;;;;19.32;75.62;95120.00;5057934;28;20182;-74
2022/08/30 05:49:44;;;;;;;13.25;12.18;;;;;;;19.33;75.71;95123.59;5040098;28;20291;-73
2022/08/30 05:52:14;;;;;;;13.82;12.60;;;;;;;19.33;75.38;95120.81;5057833;28;20193;-74
2022/08/30 05:54:41;;;;;;;13.50;12.25;;;;;;;19.33;75.65;95118.81;5057472;28;20617;-74
2022/08/30 05:57:08;;;;;;;14.07;12.68;;;;;;;19.34;76.24;95120.38;5057061;28;20190;-73
2022/08/30 05:59:36;;;;;;;13.80;12.50;;;;;;;19.35;76.29;95121.97;5057362;28;20213;-73
2022/08/30 06:02:06;;;;;;;13.88;12.25;;;;;;;19.37;76.26;95119.56;5058398;28;20186;-74
2022/08/30 06:04:35;;;;;;;13.90;12.50;;;;;;;19.36;76.13;95126.38;5059315;28;20304;-74
2022/08/30 06:07:02;;;;;;;13.60;12.38;;;;;;;19.35;76.82;95112.78;5059566;28;20193;-76
2022/08/30 06:09:29;;;;;;;15.23;12.77;;;;;;;19.30;76.40;95119.63;5062747;28;20228;-74
2022/08/30 06:11:57;;;;;;;15.63;12.82;;;;;;;19.23;77.17;95123.25;5058137;28;20610;-74
2022/08/30 06:14:24;;;;;;;15.32;13.88;;;;;;;19.20;78.50;95117.66;5062395;28;20200;-74
2022/08/30 06:16:52;;;;;;;16.73;15.23;;;;;;;19.19;79.01;95130.06;5063691;28;20204;-74
2022/08/30 06:19:20;;;;;;;17.55;15.75;;;;;;;19.18;78.43;95128.47;5061083;28;20265;-74
2022/08/30 06:21:48;;;;;;;18.38;16.88;;;;;;;19.18;78.46;95136.88;5059658;28;20194;-73
2022/08/30 06:24:15;;;;;;;21.67;19.92;;;;;;;19.16;78.54;95139.25;5058857;28;20292;-73
2022/08/30 06:26:44;;;;;;;18.83;17.02;;;;;;;19.15;78.76;95146.06;5060549;28;20186;-73
2022/08/30 06:29:16;;;;;;;15.27;13.98;;;;;;;19.14;78.61;95142.47;5059575;28;20201;-73
2022/08/30 06:31:44;;;;;;;16.50;14.57;;;;;;;19.14;78.57;95147.28;5058997;28;20198;-73
2022/08/30 06:34:12;;;;;;;15.55;14.15;;;;;;;19.13;78.55;95142.84;5059449;28;20538;-73
2022/08/30 06:36:39;;;;;;;15.63;14.20;;;;;;;19.13;78.72;95142.84;5059355;28;20205;-74
2022/08/30 06:39:06;;;;;;;15.88;14.48;;;;;;;19.12;79.17;95144.88;5060428;28;20204;-74
2022/08/30 06:41:36;;;;;;;16.75;15.10;;;;;;;19.13;79.05;95154.03;5059919;28;20205;-73
2022/08/30 06:44:05;;;;;;;17.42;15.70;;;;;;;19.13;79.31;95142.84;5058875;28;20197;-73
2022/08/30 06:46:34;;;;;;;18.42;16.55;;;;;;;19.11;78.81;95156.47;5058355;28;20206;-73
2022/08/30 06:49:02;;;;;;;16.60;15.20;;;;;;;19.10;78.52;95150.09;5058924;28;20198;-73
2022/08/30 06:51:32;;;;;;;17.35;15.85;;;;;;;19.11;78.33;95154.47;5060342;28;20216;-73
2022/08/30 06:53:59;;;;;;;16.40;14.80;;;;;;;19.14;78.41;95164.03;5060120;28;20232;-74
2022/08/30 06:56:28;;;;;;;16.02;14.55;;;;;;;19.14;78.39;95156.44;5060340;28;20212;-73
2022/08/30 06:58:55;;;;;;;16.20;14.70;;;;;;;19.16;79.10;95156.81;5061473;28;20194;-73
2022/08/30 07:01:24;;;;;;;16.88;15.35;;;;;;;19.15;79.07;95163.63;5062049;28;20201;-73
2022/08/30 07:03:51;;;;;;;17.67;14.50;;;;;;;19.14;78.94;95173.22;5058761;28;20182;-73
2022/08/30 07:06:18;;;;;;;15.93;14.38;;;;;;;19.12;79.83;95170.03;5091294;28;20336;-73
2022/08/30 07:08:48;;;;;;;16.38;14.65;;;;;;;19.09;80.07;95172.84;5059590;28;20182;-73
2022/08/30 07:11:15;;;;;;;17.15;14.52;;;;;;;19.07;80.78;95166.88;5060177;28;20285;-74
2022/08/30 07:13:44;;;;;;;16.25;14.75;;;;;;;19.05;81.02;95169.25;5063799;28;20293;-73
2022/08/30 07:16:12;;;;;;;16.05;14.38;;;;;;;19.02;81.91;95170.84;5064177;28;20201;-73
2022/08/30 07:18:50;;;;;;;15.85;14.32;;;;;;;18.97;82.90;95169.28;5060356;28;20186;-73
2022/08/30 07:21:18;;;;;;;15.30;13.82;;;;;;;18.95;83.47;95163.31;5060670;28;20186;-73
2022/08/30 07:23:49;;;;;;;16.00;14.18;;;;;;;18.97;83.08;95168.50;5060052;28;20529;-73
2022/08/30 07:26:17;;;;;;;16.50;14.80;;;;;;;19.02;83.60;95175.66;5059911;28;20625;-73
2022/08/30 07:28:46;;;;;;;15.43;14.02;;;;;;;19.03;83.81;95178.06;5060945;28;20263;-73
2022/08/30 07:31:14;;;;;;;17.17;15.63;;;;;;;19.05;84.04;95166.47;5061951;28;20308;-73
2022/08/30 07:33:41;;;;;;;15.65;14.13;;;;;;;19.07;84.61;95164.06;5063028;28;20178;-73
2022/08/30 07:36:09;;;;;;;15.27;13.88;;;;;;;19.06;84.56;95170.84;5061035;28;20194;-73
2022/08/30 07:38:35;;;;;;;14.07;12.75;;;;;;;19.06;84.06;95171.63;5061935;28;20205;-73
2022/08/30 07:41:04;;;;;;;14.38;13.07;;;;;;;19.07;84.25;95172.47;5059811;28;20202;-73
2022/08/30 07:43:32;;;;;;;16.30;14.48;;;;;;;19.04;83.66;95167.69;5063113;28;20185;-74
2022/08/30 07:46:02;;;;;;;15.70;14.23;;;;;;;19.07;83.64;95164.06;5062136;28;20197;-74
2022/08/30 07:48:29;;;;;;;15.52;14.05;;;;;;;19.09;84.03;95170.03;5059816;28;20610;-73
2022/08/30 07:50:56;;;;;;;17.77;16.15;;;;;;;19.13;83.99;95170.81;5061885;28;20221;-73
2022/08/30 07:53:23;;;;;;;16.08;14.35;;;;;;;19.18;83.62;95173.22;5063464;28;20317;-73
2022/08/30 07:55:50;;;;;;;15.25;13.95;;;;;;;19.21;83.95;95178.78;5064426;28;20192;-73
2022/08/30 07:58:19;;;;;;;13.93;12.60;;;;;;;19.24;83.40;95177.16;5064629;28;20200;-73
2022/08/30 08:00:47;;;;;;;13.30;12.07;;;;;;;19.24;81.99;95172.38;5061848;28;20190;-73
2022/08/30 08:03:14;;;;;;;13.85;12.73;;;;;;;19.28;81.43;95177.97;5063514;28;20198;-73
2022/08/30 08:05:43;;;;;;;14.60;13.07;;;;;;;19.32;81.63;95180.72;5062347;28;20256;-74
2022/08/30 08:08:11;;;;;;;17.13;15.43;;;;;;;19.35;82.11;95186.28;5059885;28;20201;-74
2022/08/30 08:10:41;;;;;;;14.98;13.65;;;;;;;19.36;81.76;95182.31;5061902;28;20212;-74
2022/08/30 08:13:08;;;;;;;14.68;13.15;;;;;;;19.37;81.92;95177.50;5061434;28;20288;-74
2022/08/30 08:15:37;;;;;;;15.25;13.75;;;;;;;19.41;82.44;95178.28;5060962;28;20217;-73
2022/08/30 08:18:04;;;;;;;15.73;14.23;;;;;;;19.46;82.52;95181.47;5059603;28;20208;-73
2022/08/30 08:20:31;;;;;;;14.45;13.05;;;;;;;19.50;82.15;95181.44;5060625;28;20193;-73
2022/08/30 08:22:59;;;;;;;15.50;13.88;;;;;;;19.56;82.65;95187.41;5045960;28;20216;-73
2022/08/30 08:25:26;;;;;;;15.98;14.30;;;;;;;19.61;82.66;95189.78;5062018;28;20207;-73
2022/08/30 08:27:53;;;;;;;15.48;13.98;;;;;;;19.68;83.07;95184.97;5061204;28;20224;-73
2022/08/30 08:30:21;;;;;;;13.93;12.63;;;;;;;19.73;82.36;95180.94;5061367;28;20232;-73
2022/08/30 08:32:50;;;;;;;13.77;12.35;;;;;;;19.78;82.37;95174.09;5059900;28;20213;-73
2022/08/30 08:35:17;;;;;;;13.73;12.43;;;;;;;19.80;81.37;95180.09;5058204;28;20205;-73
2022/08/30 08:37:44;;;;;;;12.68;11.50;;;;;;;19.83;80.67;95170.88;5060479;28;20240;-73
2022/08/30 08:40:15;;;;;;;12.50;11.23;;;;;;;19.85;79.96;95172.03;5061364;28;20182;-74
2022/08/30 08:42:59;;;;;;;14.00;11.10;;;;;;;19.88;79.45;95171.22;5060942;28;20189;-75
2022/08/30 08:45:35;;;;;;;13.43;12.32;;;;;;;19.90;80.96;95174.44;5060061;28;20274;-75
2022/08/30 08:48:07;;;;;;;14.13;12.75;;;;;;;19.89;81.00;95174.81;5062884;28;20196;-74
2022/08/30 08:50:36;;;;;;;12.63;11.52;;;;;;;19.91;81.53;95169.63;5062988;28;20252;-74
2022/08/30 08:55:51;;;;;;;12.93;11.73;;;;;;;19.96;80.63;95164.38;5063216;28;20184;-74
2022/08/30 08:58:23;;;;;;;13.10;12.00;;;;;;;19.99;81.27;95168.34;5063385;28;20209;-74
2022/08/30 09:00:50;;;;;;;13.70;12.30;;;;;;;20.03;81.78;95166.31;5066434;28;20586;-74
2022/08/30 09:03:21;;;;;;;14.60;13.23;;;;;;;20.10;82.29;95176.66;5068080;28;20190;-74
2022/08/30 09:05:49;;;;;;;13.98;12.88;;;;;;;20.13;83.04;95173.03;5066598;28;20241;-74
2022/08/30 09:08:19;;;;;;;15.20;13.80;;;;;;;20.18;83.89;95172.59;5065512;28;20296;-74
2022/08/30 09:10:50;;;;;;;15.85;14.32;;;;;;;20.20;84.31;95179.38;5066872;28;20216;-74
2022/08/30 09:13:17;;;;;;;15.23;13.75;;;;;;;20.23;84.17;95174.19;5066726;28;20194;-74
2022/08/30 09:15:44;;;;;;;15.57;13.60;;;;;;;20.24;84.23;95170.16;5064688;28;20208;-74
2022/08/30 09:18:11;;;;;;;14.10;12.77;;;;;;;20.26;83.72;95178.94;5064173;28;20311;-75
2022/08/30 09:20:42;;;;;;;15.32;13.95;;;;;;;20.25;83.07;95177.34;5065395;28;20178;-74
2022/08/30 09:23:22;;;;;;;14.27;12.98;;;;;;;20.29;83.62;95172.50;5067128;28;20228;-74
2022/08/30 09:25:51;;;;;;;14.10;12.90;;;;;;;20.30;84.01;95171.28;5065286;28;20182;-74
2022/08/30 09:28:23;;;;;;;15.63;14.02;;;;;;;20.32;84.25;95169.66;5067121;28;20186;-74
2022/08/30 09:31:00;;;;;;;15.07;13.75;;;;;;;20.34;84.04;95174.88;5065953;28;20225;-74
2022/08/30 09:33:27;;;;;;;17.45;15.65;;;;;;;20.36;84.07;95173.22;5065476;28;20195;-74
2022/08/30 09:35:56;;;;;;;16.08;14.48;;;;;;;20.38;83.95;95178.44;5065038;28;20252;-74
2022/08/30 09:38:26;;;;;;;15.38;13.93;;;;;;;20.39;83.54;95174.41;5066999;28;20296;-74
2022/08/30 09:40:54;;;;;;;14.73;13.23;;;;;;;20.40;82.97;95173.19;5066445;28;20198;-74
2022/08/30 09:43:23;;;;;;;15.27;13.95;;;;;;;20.40;82.98;95171.19;5064933;28;20221;-74
2022/08/30 09:46:07;;;;;;;33.63;30.35;;;;;;;20.41;82.78;95164.41;5066426;28;20269;-74
2022/08/30 09:48:39;;;;;;;37.20;33.78;;;;;;;20.44;83.28;95171.16;5066540;28;20194;-74
2022/08/30 09:51:51;;;;;;;19.40;17.50;;;;;;;20.44;82.52;95159.94;5066461;28;20301;-74
2022/08/30 09:54:22;;;;;;;19.58;17.67;;;;;;;20.43;81.09;95159.16;5066293;28;20212;-74
2022/08/30 09:56:59;;;;;;;17.13;15.43;;;;;;;20.46;80.87;95162.34;5065850;28;20245;-74
2022/08/30 09:59:41;;;;;;;16.13;14.48;;;;;;;20.48;81.76;95163.53;5060737;28;20206;-74
2022/08/30 10:02:22;;;;;;;17.23;15.73;;;;;;;20.50;81.96;95160.34;5064369;28;20193;-75
2022/08/30 10:04:55;;;;;;;16.27;14.65;;;;;;;20.50;81.42;95166.75;5063924;28;20206;-74
2022/08/30 10:07:27;;;;;;;16.05;14.55;;;;;;;20.53;80.75;95160.31;5063943;28;20196;-74
2022/08/30 10:10:01;;;;;;;16.58;15.07;;;;;;;20.56;80.50;95162.28;5064323;28;20188;-75
2022/08/30 10:12:34;;;;;;;17.15;15.43;;;;;;;20.59;80.60;95146.66;5065599;28;20515;-74
2022/08/30 10:15:07;;;;;;;17.00;15.32;;;;;;;20.62;80.27;95149.41;5063170;28;20194;-75
2022/08/30 10:17:43;;;;;;;17.38;15.65;;;;;;;20.68;81.36;95149.75;5062564;28;20202;-74
2022/08/30 10:20:18;;;;;;;17.55;15.75;;;;;;;20.72;80.78;95150.50;5060921;28;20550;-75
2022/08/30 10:22:49;;;;;;;18.13;16.33;;;;;;;20.78;81.14;95145.25;5058770;28;20187;-73
2022/08/30 10:25:20;;;;;;;18.15;16.23;;;;;;;20.83;80.95;95144.78;5059982;28;20201;-74
2022/08/30 10:27:51;;;;;;;17.30;15.80;;;;;;;20.89;81.16;95140.31;5057326;28;20208;-74
2022/08/30 10:30:19;;;;;;;17.05;15.50;;;;;;;20.94;80.45;95137.03;5056845;28;20198;-74
2022/08/30 10:32:51;;;;;;;16.80;15.13;;;;;;;21.00;79.97;95131.78;5056966;28;20202;-73
2022/08/30 10:35:21;;;;;;;17.33;15.63;;;;;;;21.06;80.07;95130.09;5056576;28;20197;-74
2022/08/30 10:37:53;;;;;;;15.70;14.20;;;;;;;21.11;80.21;95129.63;5056257;28;20229;-73
2022/08/30 10:43:23;;;;;;;17.90;16.13;;;;;;;21.24;79.69;95124.25;5057603;28;20201;-73
2022/08/30 10:45:52;;;;;;;17.90;16.20;;;;;;;21.30;79.74;95117.75;5057712;28;20201;-74
2022/08/30 10:48:25;;;;;;;19.02;17.23;;;;;;;21.36;79.68;95121.72;5057181;28;20194;-74
2022/08/30 10:50:53;;;;;;;18.27;16.45;;;;;;;21.41;78.74;95117.63;5057302;28;20244;-74
2022/08/30 10:53:28;;;;;;;18.52;16.85;;;;;;;21.47;78.90;95120.78;5056122;28;20198;-74
2022/08/30 10:55:57;;;;;;;24.95;22.60;;;;;;;21.58;79.30;95124.22;5055708;28;20208;-74
2022/08/30 10:58:24;;;;;;;24.08;21.88;;;;;;;21.68;79.10;95119.66;5057421;28;20190;-74
2022/08/30 11:01:00;;;;;;;20.40;18.60;;;;;;;21.72;79.13;95115.59;5056531;28;20194;-74
2022/08/30 11:03:52;;;;;;;18.90;17.17;;;;;;;21.75;78.29;95108.31;5057192;28;20201;-74
2022/08/30 11:06:22;;;;;;;17.90;16.00;;;;;;;21.74;77.46;95115.16;5056805;28;20661;-74
2022/08/30 11:09:15;;;;;;;17.48;15.65;;;;;;;21.74;77.46;95101.13;5058263;28;20212;-74
2022/08/30 11:11:57;;;;;;;17.65;16.08;;;;;;;21.80;77.31;95105.84;5090694;28;20228;-74
2022/08/30 11:14:25;;;;;;;16.90;15.32;;;;;;;21.86;76.57;95101.34;5056685;28;20194;-74
2022/08/30 11:16:56;;;;;;;17.38;15.65;;;;;;;21.96;75.46;95098.78;5057209;28;20217;-74
2022/08/30 11:19:25;;;;;;;14.20;12.90;;;;;;;22.01;75.09;95092.69;5056856;28;20197;-74
2022/08/30 11:21:53;;;;;;;14.40;13.10;;;;;;;22.18;75.31;95090.81;5057359;28;20190;-74
2022/08/30 11:24:24;;;;;;;16.65;15.05;;;;;;;22.38;75.65;95088.06;5056807;28;20196;-74
2022/08/30 11:26:55;;;;;;;17.42;15.68;;;;;;;22.58;76.27;95081.22;5057494;28;20214;-74
2022/08/30 11:29:42;;;;;;;15.45;13.95;;;;;;;22.67;74.76;95077.06;5057240;28;20190;-74
2022/08/30 11:33:00;;;;;;;16.38;14.68;;;;;;;22.76;72.96;95080.88;5058273;28;20209;-73
2022/08/30 11:35:43;;;;;;;17.25;15.48;;;;;;;22.91;73.25;95081.38;5057730;28;20197;-74
2022/08/30 11:38:18;;;;;;;20.83;15.93;;;;;;;23.04;73.22;95082.34;5057043;28;20193;-74
2022/08/30 11:40:52;;;;;;;14.98;13.63;;;;;;;23.10;73.12;95084.69;5057304;28;20201;-74